Republic Airport Farmingdale US
ICAO: KFRG
IATA: FRG
Category: Medium
Scheduled Services: No

Elevation: 82 ft
TransAlt. 18000 ft.

Airport Communications:
NEW YORK APP:118.4
ATIS:126.65
CLNC DEL:128.25
CTAF:118.8
NEW YORK DEP:123.7
GND:121.6
:111.9
TWR:118.8
UNICOM:122.95

KFRG Zoom In..

If Map Doesn't Load, Click Here

Runways:

(A) RW 01 length 5516 ft width 150 ft
---- / hdg 13

(B) RW 14 length 6833 ft width 150 ft
ILS 111.90 / hdg 146

(C) RW 19 length 5516 ft width 150 ft
---- / hdg 193

(D) RW 32 length 6833 ft width 150 ft
---- / hdg 326

Location; KFRG
Day. 23 / Time. 21.34 Zulu
* Altimeter: 30.23
* Temperature: 18° c. 64.4°f.
* Wind from: 150° Speed 03 kn.
Dewpoint: 14° c.
Visibility: 10 Statute Miles.
Clouds: Scattered 2900 ft.
Clouds: Overcast 3400 ft.

KFRG 232134Z 15003KT 10SM SCT029 OVC034 18/14 A3023 RMK AO2 T01780144


Wind From 150°
Speed 03 kn.

 
 
jpsmedia.com for Web Design worldairports.se 2018   terms of use